Terminal Aerodrome Forecast
Issued by NWS

Home | Current Version | Previous Version | Graphics & Text | Print | Product List | Glossary On
Versions: 1 2 3 4 5 6 7 8 9 10 11 12 13 14 15 16 17 18 19 20 21
000
FTUS45 KGGW 010226 AAA
TAFOLF
TAF AMD
KOLF 010226Z 0102/0124 02014KT 3SM -SN SCT010 OVC020
     FM010600 VRB06KT P6SM OVC040
     FM012100 24013G21KT P6SM VCSH OVC015
     FM012300 27012KT P6SM VCSH BKN030=

USA.gov is the U.S. government's official web portal to all federal, state and local government web resources and services.